Quick Links (Output Below):   Max & Min Temps   /   Climate Reports   /   Zone Forecasts
River Forecasts   /   Forestry Forecasts   /   Aviation Forecasts   /   Radars   /   Features

Terminal Aerodrome Forecast (Highfill)

Pick a Site:
Arkadelphia | El Dorado | Fayetteville | Fort Smith | Harrison | Highfill | Hot Springs | Jonesboro
Little Rock | Monticello | Mountain Home | Pine Bluff | Texarkana

KXNA 012320Z 0200/0224 23005KT P6SM SKC
     FM021500 29012KT P6SM SKC=

 Latest METARs (Observations) 
How to Decode METARs
03Z KXNA 020253Z 21006KT 10SM CLR 03/01 A2993 RMK AO2 SLP142 T00330006
02Z KXNA 020153Z AUTO 23007KT 10SM CLR 04/01 A2994 RMK AO2 SLP144
01Z KXNA 020053Z 23006KT 10SM CLR 04/00 A2993 RMK AO2 SLP142
00Z KXNA 012353Z 24007KT 10SM CLR 05/00 A2993 RMK AO2 SLP142 T00500000
         10094 20044 53003
***** Today's Observations (Above) *****

23Z KXNA 012253Z 24007KT 10SM CLR 07/01 A2992 RMK AO2 SLP137
22Z KXNA 012153Z 21011KT 10SM CLR 09/00 A2991 RMK AO2 SLP133
21Z KXNA 012053Z 20008KT 10SM CLR 09/02 A2992 RMK AO2 SLP136 T00890017
20Z KXNA 011953Z 24008KT 10SM CLR 08/02 A2994 RMK AO2 SLP140
19Z KXNA 011853Z 24009KT 10SM CLR 07/02 A2996 RMK AO2 SLP149
18Z KXNA 011753Z 26010KT 10SM CLR 05/02 A3000 RMK AO2 SLP163 T00500017
         10050 21006 58012
***** Yesterday's Observations (Above) *****

Back to Main Page

USA.gov is the U.S. government's official web portal to all federal, state and local government web resources and services.